Time;durP1;ratioP1;P1;durP2;ratioP2;P2;SDS_P1;SDS_P2;PMS_P1;PMS_P2;Temp;Humidity;BMP_temperature;BMP_pressure;BME280_temperature;BME280_humidity;BME280_pressure;Samples;Min_cycle;Max_cycle;Signal;HPM_P1;HPM_P2
2023/10/16 04:00:57;;;;;;;1.65;1.55;;;6.40;99.90;;;;;;5696956;23;20256;-70
2023/10/16 04:03:26;;;;;;;2.78;2.58;;;6.40;99.90;;;;;;4947722;29;20317;-70
2023/10/16 04:05:54;;;;;;;1.65;1.55;;;6.40;99.90;;;;;;4954697;28;20216;-70
2023/10/16 04:08:23;;;;;;;2.45;2.30;;;6.40;99.90;;;;;;4955057;29;20213;-70
2023/10/16 04:10:53;;;;;;;4.05;2.05;;;6.40;99.90;;;;;;4954572;29;20324;-70
2023/10/16 04:13:25;;;;;;;3.03;2.83;;;6.40;99.90;;;;;;4951247;29;20237;-70
2023/10/16 04:16:11;;;;;;;2.55;1.90;;;6.40;99.90;;;;;;4971762;23;20316;-74
2023/10/16 04:18:39;;;;;;;2.85;2.40;;;6.40;99.90;;;;;;4949110;29;20224;-74
2023/10/16 04:23:53;;;;;;;1.90;1.80;;;6.50;99.90;;;;;;4953870;28;20379;-74
2023/10/16 04:26:34;;;;;;;1.90;1.80;;;6.50;99.90;;;;;;4954499;28;20726;-74
2023/10/16 04:32:07;;;;;;;1.95;1.83;;;6.50;99.90;;;;;;4930676;28;20317;-74
2023/10/16 04:34:39;;;;;;;1.73;1.70;;;6.50;99.90;;;;;;4954538;28;20240;-73
2023/10/16 04:37:29;;;;;;;3.65;1.95;;;6.60;99.90;;;;;;4954941;28;20225;-74
2023/10/16 04:45:26;;;;;;;1.83;1.52;;;6.60;99.90;;;;;;4955406;28;20679;-72
2023/10/16 04:48:06;;;;;;;2.50;2.03;;;6.70;99.90;;;;;;4955606;29;20224;-72
2023/10/16 04:50:40;;;;;;;3.13;1.75;;;6.60;99.90;;;;;;4957607;28;20209;-72
2023/10/16 04:53:07;;;;;;;3.55;2.05;;;6.70;99.90;;;;;;4965423;29;20209;-72
2023/10/16 04:55:54;;;;;;;2.28;2.08;;;6.70;99.90;;;;;;4954019;28;20237;-73
2023/10/16 04:58:39;;;;;;;2.45;2.30;;;6.70;99.90;;;;;;4954145;29;20704;-72
2023/10/16 05:17:59;;;;;;;1.63;1.52;;;6.70;99.90;;;;;;5171985;27;20531;-70
2023/10/16 06:15:46;;;;;;;4.65;2.40;;;7.20;99.90;;;;;;5102615;28;20631;-72
2023/10/16 06:18:13;;;;;;;2.60;2.50;;;7.20;99.90;;;;;;5115615;28;20650;-71
2023/10/16 06:20:43;;;;;;;2.28;2.17;;;7.30;99.90;;;;;;5116586;28;20699;-71
2023/10/16 06:23:11;;;;;;;3.47;3.30;;;7.30;99.90;;;;;;5116746;28;20578;-71
2023/10/16 06:25:38;;;;;;;3.90;3.60;;;7.30;99.90;;;;;;5115995;28;20228;-71
2023/10/16 06:28:11;;;;;;;3.33;3.13;;;7.30;99.90;;;;;;5097958;28;20228;-72
2023/10/16 06:30:38;;;;;;;2.97;2.78;;;7.30;99.90;;;;;;5095254;28;20766;-72
2023/10/16 06:33:14;;;;;;;24.65;9.93;;;7.30;99.90;;;;;;5094936;28;20208;-72
2023/10/16 06:35:41;;;;;;;4.30;3.97;;;7.40;99.90;;;;;;5095259;28;20212;-72
2023/10/16 06:38:11;;;;;;;4.05;3.08;;;7.40;99.90;;;;;;5095155;28;20212;-72
2023/10/16 06:40:45;;;;;;;3.50;3.20;;;7.40;99.90;;;;;;5094656;28;20224;-73
2023/10/16 06:43:13;;;;;;;2.78;2.70;;;7.50;99.90;;;;;;5095573;28;20550;-73
2023/10/16 06:45:53;;;;;;;3.95;3.75;;;7.50;99.90;;;;;;5095216;28;20445;-72
2023/10/16 06:48:27;;;;;;;5.18;4.03;;;7.50;99.90;;;;;;5095346;28;20279;-72
2023/10/16 06:51:02;;;;;;;3.58;3.28;;;7.50;99.90;;;;;;5095098;28;20295;-72
2023/10/16 06:53:30;;;;;;;3.42;3.22;;;7.60;99.90;;;;;;5095082;28;20223;-71
2023/10/16 06:56:03;;;;;;;4.18;3.38;;;7.60;99.90;;;;;;5095561;28;20201;-72
2023/10/16 06:58:31;;;;;;;4.72;4.13;;;7.60;99.90;;;;;;5095502;28;20666;-72
2023/10/16 07:00:57;;;;;;;3.50;3.25;;;7.70;99.90;;;;;;5094949;28;20228;-72
2023/10/16 07:03:24;;;;;;;3.30;3.10;;;7.70;99.90;;;;;;5095561;28;20295;-71
2023/10/16 07:05:54;;;;;;;3.50;3.30;;;7.70;99.90;;;;;;5094834;28;20224;-71
2023/10/16 07:08:22;;;;;;;2.85;2.70;;;7.70;99.90;;;;;;5095254;28;20267;-71
2023/10/16 07:10:56;;;;;;;3.10;3.00;;;7.80;99.90;;;;;;5095331;28;20221;-71
2023/10/16 07:13:28;;;;;;;3.83;3.60;;;7.80;99.90;;;;;;5095350;28;20626;-70
2023/10/16 07:15:57;;;;;;;3.28;2.97;;;7.80;99.90;;;;;;5094951;28;20208;-71
2023/10/16 07:18:27;;;;;;;2.70;2.63;;;7.90;99.90;;;;;;5095206;28;20575;-71
2023/10/16 07:20:59;;;;;;;2.90;2.80;;;7.90;99.90;;;;;;5094837;28;20698;-71
2023/10/16 07:23:29;;;;;;;5.70;3.20;;;8.00;99.90;;;;;;5098683;28;20570;-74
2023/10/16 07:25:57;;;;;;;3.70;3.50;;;8.00;99.90;;;;;;5105875;28;20251;-73
2023/10/16 07:28:27;;;;;;;8.63;7.93;;;8.00;99.90;;;;;;5110323;28;20205;-73
2023/10/16 07:30:58;;;;;;;5.90;4.65;;;8.10;99.90;;;;;;5103039;28;20220;-72
2023/10/16 07:33:26;;;;;;;3.65;3.10;;;8.20;99.90;;;;;;5107369;28;20553;-72
2023/10/16 07:35:58;;;;;;;4.07;3.88;;;8.20;99.90;;;;;;5106411;28;20672;-72
2023/10/16 07:38:27;;;;;;;4.05;3.65;;;8.30;99.90;;;;;;5103977;28;20204;-72
2023/10/16 07:40:57;;;;;;;3.60;3.05;;;8.30;99.90;;;;;;5111461;28;20608;-73
2023/10/16 07:43:29;;;;;;;3.67;3.05;;;8.40;99.90;;;;;;5107536;28;20208;-72
2023/10/16 07:46:16;;;;;;;3.72;3.40;;;8.40;99.90;;;;;;5106693;28;20318;-73
2023/10/16 07:48:44;;;;;;;3.08;2.88;;;8.40;99.90;;;;;;5103427;28;20231;-72
2023/10/16 07:51:12;;;;;;;3.10;2.90;;;8.50;99.90;;;;;;5105212;28;20221;-72
2023/10/16 07:53:42;;;;;;;5.72;3.20;;;8.50;99.90;;;;;;5106100;28;20430;-72
2023/10/16 07:56:19;;;;;;;5.85;3.10;;;8.50;99.90;;;;;;5103015;28;20204;-72
2023/10/16 07:58:54;;;;;;;4.05;2.80;;;8.60;99.90;;;;;;5108624;28;20667;-72
2023/10/16 08:01:36;;;;;;;2.47;2.47;;;8.60;99.90;;;;;;5105143;28;20234;-72
2023/10/16 08:04:19;;;;;;;3.40;3.20;;;8.70;99.90;;;;;;5113862;28;20223;-72
2023/10/16 08:06:46;;;;;;;2.58;2.47;;;8.80;99.90;;;;;;5107887;28;20232;-71
2023/10/16 08:12:12;;;;;;;3.00;2.38;;;8.90;99.90;;;;;;5114162;28;20307;-71
2023/10/16 08:14:42;;;;;;;4.32;2.50;;;8.90;99.90;;;;;;5105964;28;20207;-72
2023/10/16 08:17:15;;;;;;;3.45;3.30;;;9.00;99.90;;;;;;5097087;28;20211;-72
2023/10/16 08:19:44;;;;;;;3.53;3.42;;;9.10;99.90;;;;;;5105449;28;20290;-72
2023/10/16 08:22:16;;;;;;;2.78;2.60;;;9.10;99.90;;;;;;5113716;28;20587;-72
2023/10/16 08:24:57;;;;;;;2.08;2.03;;;9.20;99.90;;;;;;5114366;28;20216;-72
2023/10/16 08:27:40;;;;;;;4.50;2.45;;;9.20;99.90;;;;;;5105349;28;20325;-72
2023/10/16 08:30:18;;;;;;;2.33;2.22;;;9.30;99.90;;;;;;5113108;28;20286;-73
2023/10/16 08:32:54;;;;;;;2.85;2.65;;;9.40;99.90;;;;;;5105004;28;20229;-71
2023/10/16 08:35:23;;;;;;;2.08;1.77;;;9.50;99.90;;;;;;5113221;28;20222;-72
2023/10/16 08:37:57;;;;;;;2.28;2.13;;;9.50;99.90;;;;;;5113729;28;20221;-72
2023/10/16 08:40:33;;;;;;;9.85;2.22;;;9.50;99.90;;;;;;5100046;28;20210;-70
2023/10/16 08:43:04;;;;;;;2.78;2.78;;;9.60;99.90;;;;;;5101401;28;20196;-69
2023/10/16 08:45:44;;;;;;;2.13;2.00;;;9.70;99.90;;;;;;5112832;28;20207;-71
2023/10/16 08:48:17;;;;;;;3.10;2.17;;;9.70;99.90;;;;;;5104877;28;20285;-71
2023/10/16 08:50:52;;;;;;;1.88;1.75;;;9.80;99.90;;;;;;5112850;28;20227;-71
2023/10/16 08:53:33;;;;;;;5.03;3.08;;;9.80;99.90;;;;;;5110683;28;20295;-71
2023/10/16 08:56:03;;;;;;;1.85;1.75;;;9.80;99.90;;;;;;5101032;28;20269;-71
2023/10/16 08:58:41;;;;;;;2.15;2.05;;;9.80;99.90;;;;;;5113043;28;20214;-71
2023/10/16 09:01:14;;;;;;;2.13;2.00;;;9.90;99.90;;;;;;5102741;28;20739;-71
2023/10/16 09:03:49;;;;;;;10.98;7.57;;;9.80;99.90;;;;;;5101193;28;20724;-71
2023/10/16 09:06:22;;;;;;;3.92;3.72;;;9.80;99.90;;;;;;5111570;28;20227;-68
2023/10/16 09:08:49;;;;;;;2.00;2.00;;;9.80;99.90;;;;;;5106142;28;20203;-69
2023/10/16 09:11:21;;;;;;;2.05;1.95;;;9.90;99.90;;;;;;5103393;28;20319;-69
2023/10/16 09:13:52;;;;;;;3.10;2.95;;;10.10;99.90;;;;;;5112687;28;20208;-69
2023/10/16 09:16:26;;;;;;;3.70;3.40;;;10.10;99.90;;;;;;5109158;28;20299;-69
2023/10/16 09:18:58;;;;;;;4.00;2.37;;;10.30;99.90;;;;;;5108161;28;20239;-68
2023/10/16 09:21:30;;;;;;;2.15;2.00;;;10.30;99.90;;;;;;5108401;28;20553;-68
2023/10/16 09:24:03;;;;;;;2.50;2.40;;;10.30;99.90;;;;;;5100711;28;20204;-68
2023/10/16 09:26:32;;;;;;;1.03;1.03;;;10.30;99.90;;;;;;5097027;28;21043;-69
2023/10/16 09:29:04;;;;;;;1.37;1.37;;;10.40;99.90;;;;;;5103912;28;20460;-69
2023/10/16 09:31:38;;;;;;;1.40;1.37;;;10.50;99.90;;;;;;5103918;28;20565;-69
2023/10/16 09:34:05;;;;;;;2.00;1.93;;;10.60;99.90;;;;;;5104162;28;20481;-69
2023/10/16 09:36:36;;;;;;;1.50;1.50;;;10.60;99.90;;;;;;5107430;28;20652;-68
2023/10/16 09:39:17;;;;;;;1.50;1.40;;;10.60;99.90;;;;;;5109396;28;20548;-67
2023/10/16 09:41:47;;;;;;;1.13;1.03;;;10.60;99.90;;;;;;5104011;28;20568;-69
2023/10/16 09:44:36;;;;;;;2.23;2.10;;;10.60;99.90;;;;;;5111797;28;20520;-68
2023/10/16 09:47:25;;;;;;;2.40;2.30;;;10.60;99.90;;;;;;5102581;28;20490;-68
2023/10/16 09:49:58;;;;;;;1.10;1.10;;;10.60;99.90;;;;;;5099815;28;20459;-69
2023/10/16 09:52:25;;;;;;;1.07;1.07;;;10.60;99.90;;;;;;5105706;28;20888;-69
2023/10/16 09:54:58;;;;;;;1.80;1.70;;;10.60;99.90;;;;;;5107280;28;20842;-69
2023/10/16 09:57:30;;;;;;;0.90;0.90;;;10.70;99.90;;;;;;5107708;28;20468;-69
2023/10/16 10:00:23;;;;;;;2.50;1.40;;;10.70;99.90;;;;;;5107048;28;20497;-67
2023/10/16 10:03:02;;;;;;;0.80;0.80;;;10.80;99.90;;;;;;5103072;28;20472;-68
2023/10/16 10:09:20;;;;;;;1.50;1.50;;;11.00;99.90;;;;;;5008969;28;21212;-69
2023/10/16 10:11:55;;;;;;;0.90;0.90;;;11.00;99.90;;;;;;5000770;28;20544;-69
2023/10/16 10:14:27;;;;;;;1.50;1.50;;;11.00;99.90;;;;;;5015475;28;20883;-67
2023/10/16 10:16:57;;;;;;;0.80;0.80;;;11.00;99.90;;;;;;5004897;28;20828;-69
2023/10/16 10:19:32;;;;;;;1.10;1.10;;;11.00;99.90;;;;;;4994258;28;20950;-69
2023/10/16 10:22:06;;;;;;;4.10;3.77;;;11.10;99.90;;;;;;5001537;28;20457;-69
2023/10/16 10:24:35;;;;;;;3.47;1.50;;;11.10;99.90;;;;;;5001696;28;20517;-70
2023/10/16 10:27:05;;;;;;;4.73;2.50;;;11.00;99.90;;;;;;5001977;28;20538;-70
2023/10/16 10:29:33;;;;;;;1.40;1.40;;;11.00;99.90;;;;;;4999955;28;20465;-69
2023/10/16 10:32:07;;;;;;;1.93;1.87;;;11.00;99.90;;;;;;5002050;28;20901;-70
2023/10/16 10:34:35;;;;;;;1.30;1.30;;;11.00;99.90;;;;;;5005188;28;20469;-69
2023/10/16 10:37:07;;;;;;;1.00;1.00;;;10.80;99.90;;;;;;5003997;28;20501;-70
2023/10/16 10:39:39;;;;;;;2.35;1.10;;;10.80;99.90;;;;;;5001482;28;20214;-70
2023/10/16 10:42:09;;;;;;;6.78;5.63;;;10.80;99.90;;;;;;5001447;28;20207;-70
2023/10/16 10:44:39;;;;;;;1.20;1.10;;;10.80;99.90;;;;;;5001566;28;20228;-70
2023/10/16 10:47:18;;;;;;;0.80;0.80;;;10.90;99.90;;;;;;5002468;28;20505;-70
2023/10/16 10:49:49;;;;;;;2.75;1.67;;;11.10;99.90;;;;;;5005079;28;20462;-70
2023/10/16 10:52:18;;;;;;;0.80;0.80;;;11.20;99.90;;;;;;5001710;28;20566;-70
2023/10/16 10:54:48;;;;;;;1.60;0.93;;;11.20;99.90;;;;;;5001057;28;20200;-70
2023/10/16 10:57:19;;;;;;;0.70;0.70;;;11.30;99.90;;;;;;5001026;28;20239;-69
2023/10/16 10:59:47;;;;;;;2.03;1.87;;;11.50;99.90;;;;;;5001064;28;20461;-70
2023/10/16 11:02:22;;;;;;;0.70;0.70;;;11.60;99.90;;;;;;5003870;28;20893;-70
2023/10/16 11:04:58;;;;;;;2.10;1.97;;;11.70;99.90;;;;;;4997336;28;20472;-70
2023/10/16 11:07:39;;;;;;;4.67;4.27;;;11.70;99.90;;;;;;5001089;28;20499;-69
2023/10/16 11:10:07;;;;;;;10.63;6.50;;;11.80;99.90;;;;;;5002067;28;20501;-72
2023/10/16 11:12:34;;;;;;;3.73;3.37;;;11.90;99.90;;;;;;5003996;28;20465;-70
2023/10/16 11:15:02;;;;;;;4.30;4.03;;;12.00;99.90;;;;;;5003373;28;20465;-70
2023/10/16 11:17:32;;;;;;;0.53;0.53;;;12.00;99.90;;;;;;5000975;28;20572;-69
2023/10/16 11:20:11;;;;;;;4.70;2.70;;;12.10;99.90;;;;;;5001037;28;20461;-69
2023/10/16 11:22:43;;;;;;;2.23;0.90;;;12.20;99.90;;;;;;5003865;28;20465;-71
2023/10/16 11:25:12;;;;;;;0.53;0.53;;;12.30;99.90;;;;;;5001697;28;20478;-70
2023/10/16 11:27:42;;;;;;;0.80;0.80;;;12.40;99.90;;;;;;5000206;28;20874;-71
2023/10/16 11:30:11;;;;;;;2.00;0.70;;;12.40;99.90;;;;;;5001818;28;20559;-70
2023/10/16 11:32:41;;;;;;;0.87;0.80;;;12.40;99.90;;;;;;5003738;28;20465;-71
2023/10/16 11:35:15;;;;;;;0.40;0.40;;;12.40;99.90;;;;;;5001635;28;20891;-71
2023/10/16 11:37:43;;;;;;;1.90;0.87;;;12.40;99.90;;;;;;5000129;28;20513;-71
2023/10/16 11:40:19;;;;;;;0.77;0.77;;;12.50;99.90;;;;;;5001899;28;20905;-69
2023/10/16 11:42:46;;;;;;;2.20;1.03;;;12.60;99.90;;;;;;5003359;28;20979;-70
2023/10/16 11:45:18;;;;;;;0.67;0.67;;;12.60;99.90;;;;;;5000528;28;20472;-69
2023/10/16 11:47:45;;;;;;;0.73;0.73;;;12.60;99.90;;;;;;4999912;28;20495;-70
2023/10/16 11:50:17;;;;;;;1.67;1.57;;;12.50;99.90;;;;;;5002175;28;20502;-72
2023/10/16 11:52:44;;;;;;;1.00;1.00;;;12.40;99.90;;;;;;5003146;28;20464;-71
2023/10/16 11:55:14;;;;;;;1.50;1.50;;;12.40;99.90;;;;;;5000765;28;20476;-70
2023/10/16 11:57:41;;;;;;;2.73;1.40;;;12.40;99.90;;;;;;4999703;28;20524;-70
2023/10/16 12:00:15;;;;;;;1.50;1.50;;;12.30;99.90;;;;;;4999946;28;20486;-70
2023/10/16 12:02:46;;;;;;;2.70;2.60;;;12.20;99.90;;;;;;4999607;28;20482;-71
2023/10/16 12:05:14;;;;;;;1.77;1.77;;;12.10;99.90;;;;;;5001700;28;20553;-70
2023/10/16 12:07:44;;;;;;;1.40;1.40;;;12.00;99.90;;;;;;5003007;28;20522;-69
2023/10/16 12:10:15;;;;;;;1.80;1.63;;;11.80;99.90;;;;;;4994854;28;20860;-71
2023/10/16 12:12:42;;;;;;;1.70;1.70;;;11.60;99.90;;;;;;5003441;28;20492;-71
2023/10/16 12:15:10;;;;;;;2.13;2.03;;;11.60;99.90;;;;;;5000859;28;20466;-70
2023/10/16 12:17:36;;;;;;;2.10;1.50;;;11.50;99.90;;;;;;4999893;28;20501;-71
2023/10/16 12:20:09;;;;;;;1.50;1.50;;;11.40;99.90;;;;;;5000927;28;20223;-72
2023/10/16 12:22:39;;;;;;;3.17;1.85;;;11.20;99.90;;;;;;4998237;28;20463;-71
2023/10/16 12:25:09;;;;;;;1.88;1.60;;;11.00;99.90;;;;;;4999588;28;20247;-71
2023/10/16 12:27:37;;;;;;;1.98;1.88;;;10.90;99.90;;;;;;4999974;28;20271;-71
2023/10/16 12:30:04;;;;;;;1.48;0.90;;;10.70;99.90;;;;;;5000921;28;20254;-70
2023/10/16 12:32:32;;;;;;;1.65;0.73;;;10.60;99.90;;;;;;5003060;28;20754;-70
2023/10/16 12:35:00;;;;;;;1.58;1.35;;;10.60;99.90;;;;;;4995022;28;20222;-70
2023/10/16 12:37:27;;;;;;;1.85;1.75;;;10.60;99.90;;;;;;5003313;28;20230;-71
2023/10/16 12:39:55;;;;;;;1.88;1.77;;;10.50;99.90;;;;;;5003119;28;20530;-70
2023/10/16 12:42:22;;;;;;;1.65;1.35;;;10.50;99.90;;;;;;5003021;28;20215;-71
2023/10/16 12:44:49;;;;;;;2.30;2.20;;;10.60;99.90;;;;;;5002900;28;20597;-70
2023/10/16 12:47:16;;;;;;;1.67;1.48;;;10.60;99.90;;;;;;5000002;28;20247;-71
2023/10/16 12:49:43;;;;;;;2.38;1.88;;;10.70;99.90;;;;;;4999743;28;20211;-71
2023/10/16 12:52:10;;;;;;;2.25;1.50;;;10.70;99.90;;;;;;5001470;28;20231;-71
2023/10/16 12:54:43;;;;;;;1.38;1.35;;;10.70;99.90;;;;;;4997193;28;20216;-70
2023/10/16 12:57:11;;;;;;;1.67;1.67;;;10.80;99.90;;;;;;5001164;28;20251;-70
2023/10/16 12:59:38;;;;;;;3.75;1.52;;;10.80;99.90;;;;;;5002666;28;20210;-68
2023/10/16 13:02:06;;;;;;;0.98;0.98;;;10.80;99.90;;;;;;5001851;28;20294;-69
2023/10/16 13:04:33;;;;;;;1.10;1.10;;;10.90;99.90;;;;;;4999402;28;20646;-68
2023/10/16 13:07:00;;;;;;;3.90;1.67;;;10.90;99.90;;;;;;4999538;28;20250;-69
2023/10/16 13:09:30;;;;;;;1.38;1.38;;;10.90;99.90;;;;;;4998713;28;20215;-69
2023/10/16 13:11:57;;;;;;;1.35;0.95;;;10.80;99.90;;;;;;4999658;28;20244;-69
2023/10/16 13:14:25;;;;;;;0.98;0.98;;;10.80;99.90;;;;;;5002926;28;20211;-68
2023/10/16 13:16:54;;;;;;;1.40;1.40;;;10.80;99.90;;;;;;5002743;28;20345;-68
2023/10/16 13:19:21;;;;;;;1.52;1.40;;;10.80;99.90;;;;;;4999428;28;20211;-68
2023/10/16 13:21:51;;;;;;;1.60;1.60;;;10.80;99.90;;;;;;4999297;28;20212;-68
2023/10/16 13:24:20;;;;;;;1.67;1.58;;;10.90;99.90;;;;;;5002199;28;20207;-68
2023/10/16 13:26:48;;;;;;;0.85;0.85;;;10.90;99.90;;;;;;5002708;28;20289;-67
2023/10/16 13:29:17;;;;;;;1.10;1.10;;;10.90;99.90;;;;;;5004072;28;20265;-69
2023/10/16 13:31:46;;;;;;;0.93;0.93;;;10.90;99.90;;;;;;5003150;28;20204;-67
2023/10/16 13:34:15;;;;;;;0.95;0.95;;;10.90;99.90;;;;;;5005276;28;20230;-68
2023/10/16 13:36:47;;;;;;;0.90;0.90;;;11.00;99.90;;;;;;5005941;28;20243;-68
2023/10/16 13:39:19;;;;;;;1.15;0.95;;;11.00;99.90;;;;;;5002997;28;20207;-68
2023/10/16 13:41:51;;;;;;;1.30;1.00;;;11.00;99.90;;;;;;5003010;28;20298;-68
2023/10/16 13:44:19;;;;;;;1.55;1.17;;;11.00;99.90;;;;;;5005767;28;20261;-68
2023/10/16 13:46:47;;;;;;;2.10;2.00;;;11.00;99.90;;;;;;5005880;28;20238;-68
2023/10/16 13:49:16;;;;;;;16.55;7.68;;;11.00;99.90;;;;;;4995502;28;20266;-68
2023/10/16 13:51:43;;;;;;;15.52;6.13;;;11.00;99.90;;;;;;5002785;28;20239;-68
2023/10/16 13:54:12;;;;;;;4.00;1.90;;;11.00;99.90;;;;;;5005063;28;20516;-70
2023/10/16 13:56:39;;;;;;;10.60;5.72;;;11.00;99.90;;;;;;5007242;28;20227;-69
2023/10/16 13:59:06;;;;;;;10.73;5.57;;;11.00;99.90;;;;;;5006145;28;20199;-70
2023/10/16 14:01:38;;;;;;;16.45;5.80;;;11.00;99.90;;;;;;5002549;28;20638;-68
2023/10/16 14:04:13;;;;;;;11.95;4.47;;;11.00;99.90;;;;;;5003583;28;20626;-69
2023/10/16 14:06:41;;;;;;;5.63;2.88;;;11.00;99.90;;;;;;5006081;28;20318;-69
2023/10/16 14:09:18;;;;;;;20.00;8.87;;;10.90;99.90;;;;;;5003988;28;20256;-68
2023/10/16 14:11:48;;;;;;;5.82;2.72;;;10.90;99.90;;;;;;5001994;28;20470;-69
2023/10/16 14:14:18;;;;;;;17.58;6.60;;;11.00;99.90;;;;;;5001790;28;20246;-68
2023/10/16 14:16:49;;;;;;;11.15;4.43;;;11.00;99.90;;;;;;4999973;28;20649;-68
2023/10/16 14:19:22;;;;;;;5.68;3.50;;;10.90;99.90;;;;;;5002433;28;20428;-68
2023/10/16 14:21:51;;;;;;;17.10;6.20;;;10.90;99.90;;;;;;5001789;28;20651;-68
2023/10/16 14:24:18;;;;;;;2.45;1.98;;;10.90;99.90;;;;;;5004925;28;20207;-68
2023/10/16 14:26:49;;;;;;;20.50;7.90;;;10.90;99.90;;;;;;5005123;28;20318;-68
2023/10/16 14:29:16;;;;;;;8.63;4.90;;;11.00;99.90;;;;;;5002456;28;20491;-68
2023/10/16 14:31:46;;;;;;;9.63;5.93;;;11.00;99.90;;;;;;5002234;28;20458;-68
2023/10/16 14:34:17;;;;;;;5.17;3.63;;;11.00;99.90;;;;;;5004449;28;20586;-68
2023/10/16 14:36:46;;;;;;;25.10;9.60;;;11.00;99.90;;;;;;5005217;28;20493;-68
2023/10/16 14:39:13;;;;;;;14.23;7.50;;;11.00;99.90;;;;;;5002647;28;20465;-68
2023/10/16 14:41:41;;;;;;;21.60;8.70;;;11.00;99.90;;;;;;5001740;28;20462;-68
2023/10/16 14:44:09;;;;;;;28.23;9.60;;;11.00;99.90;;;;;;5003581;28;20517;-68
2023/10/16 14:46:36;;;;;;;6.50;3.90;;;11.00;99.90;;;;;;5004819;28;20479;-68
2023/10/16 14:49:04;;;;;;;1.33;1.33;;;11.00;99.90;;;;;;5004050;28;20307;-68
2023/10/16 14:51:31;;;;;;;4.77;4.30;;;11.00;99.90;;;;;;5001599;28;20490;-68
2023/10/16 14:54:00;;;;;;;5.80;5.33;;;11.00;99.90;;;;;;5001443;28;20469;-68
2023/10/16 14:56:27;;;;;;;1.67;1.57;;;11.00;99.90;;;;;;5001393;28;20490;-68
2023/10/16 14:58:54;;;;;;;1.90;1.80;;;10.90;99.90;;;;;;5001431;28;20462;-68
2023/10/16 15:01:21;;;;;;;2.10;2.00;;;10.90;99.90;;;;;;5001787;28;20463;-68
2023/10/16 15:03:50;;;;;;;3.03;2.43;;;10.90;99.90;;;;;;5001545;28;20529;-68
2023/10/16 15:06:18;;;;;;;2.55;2.42;;;10.90;99.90;;;;;;5003879;28;20489;-68
2023/10/16 15:08:47;;;;;;;3.75;3.55;;;10.90;99.90;;;;;;5004479;28;20703;-69
2023/10/16 15:11:15;;;;;;;4.03;1.75;;;10.80;99.90;;;;;;5002077;28;20225;-69
2023/10/16 15:13:43;;;;;;;2.25;2.10;;;10.80;99.90;;;;;;5001169;28;20215;-69
2023/10/16 15:16:10;;;;;;;1.67;1.58;;;10.80;99.90;;;;;;5003044;28;20285;-69
2023/10/16 15:18:38;;;;;;;5.28;1.83;;;10.80;99.90;;;;;;5004645;28;20207;-68
2023/10/16 15:21:06;;;;;;;2.08;2.08;;;10.70;99.90;;;;;;5003371;28;20254;-69
2023/10/16 15:23:34;;;;;;;3.13;2.85;;;10.70;99.90;;;;;;5001045;28;20262;-68
2023/10/16 15:26:01;;;;;;;5.88;4.70;;;10.60;99.90;;;;;;5001395;28;20760;-69
2023/10/16 15:28:29;;;;;;;6.03;2.95;;;10.50;99.90;;;;;;5004859;28;20358;-69
2023/10/16 15:30:59;;;;;;;2.80;2.70;;;10.50;99.90;;;;;;5004581;28;20265;-69
2023/10/16 15:33:26;;;;;;;2.10;2.10;;;10.40;99.90;;;;;;4997213;28;20606;-69
2023/10/16 15:35:53;;;;;;;1.88;1.88;;;10.30;99.90;;;;;;5004065;28;20246;-69
2023/10/16 15:38:23;;;;;;;2.45;2.40;;;10.30;99.90;;;;;;4996129;28;20207;-70
2023/10/16 15:40:52;;;;;;;1.65;1.65;;;10.20;99.90;;;;;;5004546;28;20244;-69
2023/10/16 15:43:18;;;;;;;2.00;1.90;;;10.10;99.90;;;;;;5001262;28;20668;-69
2023/10/16 15:45:47;;;;;;;1.55;1.55;;;10.10;99.90;;;;;;5000859;28;20734;-70
2023/10/16 15:48:14;;;;;;;1.13;1.13;;;10.00;99.90;;;;;;5003085;28;20727;-69
2023/10/16 15:50:41;;;;;;;3.08;1.48;;;9.90;99.90;;;;;;5003476;28;20238;-70
2023/10/16 15:53:09;;;;;;;1.60;1.60;;;9.90;99.90;;;;;;5002788;28;20459;-69
2023/10/16 15:55:36;;;;;;;1.58;1.58;;;9.90;99.90;;;;;;5000457;28;20278;-69
2023/10/16 15:58:04;;;;;;;2.15;2.08;;;9.80;99.90;;;;;;5000939;28;20223;-68
2023/10/16 16:00:37;;;;;;;2.80;2.70;;;9.80;99.90;;;;;;5000812;28;20203;-69
2023/10/16 16:03:08;;;;;;;3.25;3.05;;;9.80;99.90;;;;;;5001911;28;20215;-69
2023/10/16 16:05:35;;;;;;;2.90;2.50;;;9.70;99.90;;;;;;5003724;28;20242;-69
2023/10/16 16:08:03;;;;;;;2.67;2.58;;;9.70;99.90;;;;;;5003047;28;20223;-68
2023/10/16 16:10:32;;;;;;;4.70;4.32;;;9.70;99.90;;;;;;5000020;28;20223;-69
2023/10/16 16:13:00;;;;;;;3.75;3.60;;;9.70;99.90;;;;;;5000805;28;20238;-69
2023/10/16 16:15:28;;;;;;;2.75;2.55;;;9.70;99.90;;;;;;5003454;28;20303;-68
2023/10/16 16:17:55;;;;;;;3.70;2.88;;;9.70;99.90;;;;;;5003634;28;20297;-69
2023/10/16 16:20:23;;;;;;;4.38;2.60;;;9.60;99.90;;;;;;5003590;28;20207;-69
2023/10/16 16:22:52;;;;;;;2.42;2.30;;;9.60;99.90;;;;;;5003389;28;20302;-69
2023/10/16 16:25:19;;;;;;;3.35;3.25;;;9.50;99.90;;;;;;5000143;28;20222;-69
2023/10/16 16:27:47;;;;;;;3.00;2.90;;;9.50;99.90;;;;;;5000249;28;20207;-68
2023/10/16 16:30:16;;;;;;;2.97;2.70;;;9.40;99.90;;;;;;5001939;28;20684;-68
2023/10/16 16:32:45;;;;;;;3.35;3.15;;;9.30;99.90;;;;;;5003099;28;20562;-68
2023/10/16 16:35:15;;;;;;;7.95;7.25;;;9.30;99.90;;;;;;5000396;28;20204;-69
2023/10/16 16:37:48;;;;;;;3.97;3.78;;;9.20;99.90;;;;;;4999415;28;20223;-68
2023/10/16 16:40:14;;;;;;;2.80;2.70;;;9.20;99.90;;;;;;5001639;28;20672;-69
2023/10/16 16:42:41;;;;;;;3.35;3.05;;;9.10;99.90;;;;;;5002728;28;20215;-69
2023/10/16 16:45:09;;;;;;;4.18;3.00;;;9.10;99.90;;;;;;5000610;28;20718;-67
2023/10/16 16:47:35;;;;;;;3.28;3.08;;;9.10;99.90;;;;;;4996441;28;20722;-68
2023/10/16 16:50:03;;;;;;;3.25;2.95;;;9.00;99.90;;;;;;5001981;28;20237;-68
2023/10/16 16:52:29;;;;;;;3.50;3.20;;;9.00;99.90;;;;;;5000174;28;20239;-68
2023/10/16 16:54:58;;;;;;;3.72;3.35;;;9.00;99.90;;;;;;4998466;28;20216;-71
2023/10/16 16:57:24;;;;;;;4.15;3.20;;;9.00;99.90;;;;;;5002344;28;20235;-70
2023/10/16 16:59:51;;;;;;;2.70;2.55;;;9.00;99.90;;;;;;5002552;28;20200;-70
2023/10/16 17:02:18;;;;;;;7.75;4.07;;;9.00;99.90;;;;;;4999294;28;20208;-69
2023/10/16 17:04:45;;;;;;;9.43;4.78;;;9.00;99.90;;;;;;4997453;28;20215;-69
2023/10/16 17:07:12;;;;;;;6.18;5.07;;;9.00;99.90;;;;;;4999946;28;20687;-70
2023/10/16 17:09:38;;;;;;;15.43;5.95;;;9.00;99.90;;;;;;4996345;28;20223;-68
2023/10/16 17:12:08;;;;;;;6.45;5.95;;;9.00;99.90;;;;;;5000860;28;20231;-69
2023/10/16 17:14:37;;;;;;;9.77;6.47;;;9.00;99.90;;;;;;4998966;28;20299;-69
2023/10/16 17:17:04;;;;;;;9.65;6.80;;;9.00;99.90;;;;;;4991382;28;20239;-69
2023/10/16 17:19:31;;;;;;;11.73;6.15;;;9.00;99.90;;;;;;5002296;28;20675;-68
2023/10/16 17:21:58;;;;;;;7.80;4.75;;;9.00;99.90;;;;;;5001747;28;20243;-69
2023/10/16 17:24:27;;;;;;;11.15;6.90;;;9.00;99.90;;;;;;4998825;28;20607;-69
2023/10/16 17:26:53;;;;;;;9.00;5.40;;;9.00;99.90;;;;;;4998541;28;20258;-69
2023/10/16 17:29:23;;;;;;;11.85;8.10;;;9.00;99.90;;;;;;5001678;28;20231;-67
2023/10/16 17:31:54;;;;;;;11.77;7.70;;;9.00;99.90;;;;;;5002338;28;20317;-67
2023/10/16 17:34:24;;;;;;;12.25;8.80;;;9.00;99.90;;;;;;4998550;28;20208;-71
2023/10/16 17:36:52;;;;;;;9.30;8.35;;;9.00;99.90;;;;;;4998236;28;20263;-67
2023/10/16 17:39:20;;;;;;;9.63;7.85;;;9.00;99.90;;;;;;5001524;28;20609;-67
2023/10/16 17:41:47;;;;;;;8.50;7.65;;;9.00;99.90;;;;;;5001732;28;20289;-67
2023/10/16 17:44:14;;;;;;;7.38;6.20;;;9.00;99.90;;;;;;4999388;28;20218;-68
2023/10/16 17:46:42;;;;;;;7.78;6.85;;;9.00;99.90;;;;;;4998732;28;20227;-67
2023/10/16 17:49:09;;;;;;;8.40;7.57;;;9.00;99.90;;;;;;5000462;28;20234;-68
2023/10/16 17:51:37;;;;;;;7.90;7.10;;;9.00;99.90;;;;;;4997101;28;20455;-67
2023/10/16 17:54:08;;;;;;;7.25;6.55;;;9.00;99.90;;;;;;5000384;28;20216;-68
2023/10/16 17:56:35;;;;;;;7.75;7.05;;;8.90;99.90;;;;;;5002269;28;20227;-67
2023/10/16 17:59:05;;;;;;;12.45;7.50;;;8.90;99.90;;;;;;5001820;28;20203;-67
2023/10/16 18:01:33;;;;;;;8.13;7.43;;;8.90;99.90;;;;;;4998992;28;20266;-68
2023/10/16 18:04:01;;;;;;;11.02;8.65;;;8.90;99.90;;;;;;4998809;28;20289;-69
2023/10/16 18:06:28;;;;;;;10.75;8.65;;;8.80;99.90;;;;;;4994736;28;20740;-68
2023/10/16 18:08:55;;;;;;;14.77;9.75;;;8.80;99.90;;;;;;5002335;28;20231;-70
2023/10/16 18:11:21;;;;;;;12.65;9.35;;;8.70;99.90;;;;;;5002771;28;20219;-69
2023/10/16 18:13:48;;;;;;;9.05;8.10;;;8.70;99.90;;;;;;5005002;28;20207;-71
2023/10/16 18:16:15;;;;;;;8.95;8.15;;;8.70;99.90;;;;;;5002913;28;20227;-69
2023/10/16 18:18:42;;;;;;;9.82;8.82;;;8.60;99.90;;;;;;5002745;28;20212;-69
2023/10/16 18:21:10;;;;;;;13.18;10.45;;;8.50;99.90;;;;;;5004199;28;20204;-69
2023/10/16 18:23:37;;;;;;;11.63;10.35;;;8.50;99.90;;;;;;5005955;28;20211;-69
2023/10/16 18:26:03;;;;;;;12.48;10.23;;;8.40;99.90;;;;;;5004774;28;20227;-70
2023/10/16 18:28:31;;;;;;;10.43;8.93;;;8.40;99.90;;;;;;5002333;28;20211;-69
2023/10/16 18:30:58;;;;;;;10.57;8.55;;;8.40;99.90;;;;;;5002197;28;20216;-69
2023/10/16 18:33:25;;;;;;;9.63;6.95;;;8.30;99.90;;;;;;5001837;28;20211;-69
2023/10/16 18:35:52;;;;;;;5.97;5.47;;;8.30;99.90;;;;;;5002257;28;20310;-70